Time;durP1;ratioP1;P1;durP2;ratioP2;P2;SDS_P1;SDS_P2;PMS_P1;PMS_P2;Temp;Humidity;BMP_temperature;BMP_pressure;BME280_temperature;BME280_humidity;BME280_pressure;Samples;Min_cycle;Max_cycle;Signal;HPM_P1;HPM_P2
2022/04/02 00:02:26;;;;;;;6.07;4.23;;;3.60;99.90;;;;;;5015085;28;20223;-75
2022/04/02 00:04:53;;;;;;;6.77;3.73;;;3.60;99.90;;;;;;5023251;28;20213;-75
2022/04/02 00:07:21;;;;;;;3.93;3.53;;;3.70;99.90;;;;;;5022979;28;20226;-75
2022/04/02 00:09:48;;;;;;;5.07;3.83;;;3.60;99.90;;;;;;5038917;28;20199;-74
2022/04/02 00:12:16;;;;;;;5.73;3.53;;;3.70;99.90;;;;;;5019918;28;20212;-75
2022/04/02 00:14:45;;;;;;;4.97;3.33;;;3.70;99.90;;;;;;5025444;28;20207;-75
2022/04/02 00:17:14;;;;;;;6.70;4.00;;;3.70;99.90;;;;;;5024295;28;20216;-75
2022/04/02 00:19:41;;;;;;;3.83;3.23;;;3.60;99.90;;;;;;5025293;28;20191;-75
2022/04/02 00:22:08;;;;;;;6.97;3.73;;;3.70;99.90;;;;;;5025871;28;20210;-75
2022/04/02 00:24:36;;;;;;;5.47;3.77;;;3.60;99.90;;;;;;5025226;28;20196;-75
2022/04/02 00:27:03;;;;;;;5.03;3.47;;;3.70;99.90;;;;;;5019929;28;20212;-75
2022/04/02 00:29:32;;;;;;;4.67;3.40;;;3.60;99.90;;;;;;5019004;28;20187;-75
2022/04/02 00:31:59;;;;;;;4.13;3.10;;;3.50;99.90;;;;;;5017155;28;20206;-75
2022/04/02 00:34:28;;;;;;;6.03;2.97;;;3.60;99.90;;;;;;5022603;28;20219;-75
2022/04/02 00:36:55;;;;;;;3.40;2.90;;;3.60;99.90;;;;;;5021354;28;20194;-75
2022/04/02 00:39:38;;;;;;;5.13;3.23;;;3.60;99.90;;;;;;5017723;28;20198;-76
2022/04/02 00:42:06;;;;;;;4.60;2.77;;;3.60;99.90;;;;;;5023563;28;20199;-76
2022/04/02 00:44:33;;;;;;;3.50;2.80;;;3.60;99.90;;;;;;5023875;28;20203;-75
2022/04/02 00:47:01;;;;;;;3.07;2.77;;;3.50;99.90;;;;;;5024472;28;20210;-73
2022/04/02 00:49:30;;;;;;;4.87;2.43;;;3.20;99.90;;;;;;5025111;28;20205;-75
2022/04/02 00:51:57;;;;;;;5.43;2.30;;;3.20;99.90;;;;;;5039893;28;20550;-75
2022/04/02 00:54:29;;;;;;;5.23;2.87;;;3.30;99.90;;;;;;5020808;28;20227;-75
2022/04/02 00:56:58;;;;;;;3.40;2.43;;;3.40;99.90;;;;;;5021493;28;20246;-75
2022/04/02 00:59:26;;;;;;;2.80;2.50;;;3.40;99.90;;;;;;5018813;28;20206;-75
2022/04/02 01:01:53;;;;;;;3.33;2.70;;;3.30;99.90;;;;;;5020796;28;20208;-75
2022/04/02 01:04:22;;;;;;;5.33;2.33;;;3.50;99.90;;;;;;5035502;28;20223;-75
2022/04/02 01:06:52;;;;;;;3.30;2.50;;;3.50;99.90;;;;;;5025500;28;20707;-75
2022/04/02 01:09:22;;;;;;;3.33;2.63;;;3.60;99.90;;;;;;5023953;28;20656;-75
2022/04/02 01:11:54;;;;;;;4.77;2.80;;;3.60;99.90;;;;;;5027609;28;20211;-75
2022/04/02 01:14:22;;;;;;;3.67;2.23;;;3.50;99.90;;;;;;5025489;28;20233;-75
2022/04/02 01:16:53;;;;;;;3.40;2.80;;;3.60;99.90;;;;;;5025618;28;20202;-75
2022/04/02 01:19:24;;;;;;;4.23;2.40;;;3.40;99.90;;;;;;5025556;28;20207;-75
2022/04/02 01:22:04;;;;;;;5.90;2.73;;;3.40;99.90;;;;;;5024662;28;20195;-75
2022/04/02 01:24:42;;;;;;;6.33;2.67;;;3.40;99.90;;;;;;5037887;28;20665;-75
2022/04/02 01:27:09;;;;;;;3.03;2.53;;;3.50;99.90;;;;;;5028274;28;20199;-75
2022/04/02 01:29:38;;;;;;;4.00;2.40;;;3.50;99.90;;;;;;5024350;28;20191;-75
2022/04/02 01:32:10;;;;;;;4.20;2.80;;;3.30;99.90;;;;;;5021376;28;20661;-74
2022/04/02 01:34:52;;;;;;;3.70;2.40;;;3.40;99.90;;;;;;5032811;28;20191;-75
2022/04/02 01:37:22;;;;;;;4.70;2.63;;;3.40;99.90;;;;;;5029252;28;20199;-75
2022/04/02 01:39:55;;;;;;;3.33;2.33;;;3.40;99.90;;;;;;5017584;28;20195;-73
2022/04/02 01:42:26;;;;;;;4.30;2.50;;;3.40;99.90;;;;;;5028960;28;20202;-75
2022/04/02 01:45:05;;;;;;;3.80;2.27;;;3.40;99.90;;;;;;5030345;28;20208;-75
2022/04/02 01:47:56;;;;;;;3.17;2.73;;;3.50;99.90;;;;;;5030989;28;20222;-75
2022/04/02 01:50:38;;;;;;;4.03;2.60;;;3.40;99.90;;;;;;5024075;28;20199;-75
2022/04/02 01:53:07;;;;;;;2.87;1.93;;;3.30;99.90;;;;;;5028859;28;20248;-75
2022/04/02 01:55:35;;;;;;;3.73;2.37;;;3.20;99.90;;;;;;5027227;28;20206;-75
2022/04/02 01:58:29;;;;;;;3.07;2.50;;;3.30;99.90;;;;;;5037205;28;20192;-75
2022/04/02 02:00:58;;;;;;;3.13;2.40;;;3.10;99.90;;;;;;5028379;28;20226;-75
2022/04/02 02:03:26;;;;;;;3.70;2.37;;;3.40;99.90;;;;;;5028137;28;20227;-75
2022/04/02 02:05:54;;;;;;;3.30;2.10;;;3.30;99.90;;;;;;5023608;28;20202;-75
2022/04/02 02:08:24;;;;;;;3.30;2.40;;;3.30;99.90;;;;;;5027387;28;20211;-75
2022/04/02 02:10:59;;;;;;;3.47;2.00;;;3.30;99.90;;;;;;5038923;28;20199;-75
2022/04/02 02:13:38;;;;;;;2.53;2.07;;;3.40;99.90;;;;;;5027821;28;20221;-75
2022/04/02 02:16:11;;;;;;;3.27;2.10;;;3.40;99.90;;;;;;5025074;28;20199;-75
2022/04/02 02:18:38;;;;;;;3.37;2.77;;;3.30;99.90;;;;;;5022613;28;20661;-75
2022/04/02 02:21:06;;;;;;;3.10;2.20;;;3.30;99.90;;;;;;5031034;28;20206;-75
2022/04/02 02:23:34;;;;;;;3.37;2.27;;;3.30;99.90;;;;;;5024444;28;20226;-74
2022/04/02 02:26:02;;;;;;;3.73;2.23;;;3.30;99.90;;;;;;5027155;28;20206;-75
2022/04/02 02:28:29;;;;;;;4.80;2.17;;;3.20;99.90;;;;;;5038141;28;20222;-75
2022/04/02 02:30:58;;;;;;;3.00;2.30;;;3.10;99.90;;;;;;5027537;28;20698;-75
2022/04/02 02:36:13;;;;;;;3.00;2.20;;;3.20;99.90;;;;;;5039773;28;20191;-75
2022/04/02 02:38:51;;;;;;;2.90;2.30;;;3.30;99.90;;;;;;5027605;28;20656;-75
2022/04/02 02:41:24;;;;;;;2.47;1.90;;;3.20;99.90;;;;;;5035657;28;20194;-75
2022/04/02 02:43:57;;;;;;;2.80;2.30;;;3.20;99.90;;;;;;5026908;28;20230;-75
2022/04/02 02:46:32;;;;;;;2.10;1.80;;;3.20;99.90;;;;;;5018526;23;20220;-78
2022/04/02 02:49:05;;;;;;;3.33;2.20;;;3.10;99.90;;;;;;4984060;28;20224;-77
2022/04/02 02:51:33;;;;;;;3.63;2.27;;;3.20;99.90;;;;;;4985374;28;20199;-78
2022/04/02 02:54:02;;;;;;;4.27;2.20;;;3.10;99.90;;;;;;4978990;28;20196;-76
2022/04/02 02:56:29;;;;;;;3.37;2.33;;;3.10;99.90;;;;;;4985909;28;20590;-77
2022/04/02 02:58:57;;;;;;;3.17;2.10;;;3.10;99.90;;;;;;4976893;28;20193;-77
2022/04/02 03:01:26;;;;;;;2.43;1.70;;;3.00;99.90;;;;;;4970052;28;20204;-78
2022/04/02 03:03:56;;;;;;;2.63;2.27;;;3.00;99.90;;;;;;4966623;28;20576;-77
2022/04/02 03:06:28;;;;;;;4.13;2.20;;;3.10;99.90;;;;;;4965715;28;20225;-77
2022/04/02 03:08:56;;;;;;;3.27;2.27;;;3.10;99.90;;;;;;4966744;28;20581;-76
2022/04/02 03:11:25;;;;;;;4.30;2.40;;;3.00;99.90;;;;;;4965209;28;20198;-77
2022/04/02 03:13:54;;;;;;;2.33;2.13;;;3.10;99.90;;;;;;4983056;28;20208;-77
2022/04/02 03:16:25;;;;;;;5.17;2.50;;;3.00;99.90;;;;;;4966649;28;20224;-77
2022/04/02 03:19:00;;;;;;;2.60;2.00;;;3.10;99.90;;;;;;4967725;28;20203;-76
2022/04/02 03:21:28;;;;;;;2.90;2.10;;;3.00;99.90;;;;;;4964348;28;20203;-78
2022/04/02 03:23:57;;;;;;;3.83;2.33;;;3.00;99.90;;;;;;4965354;28;20205;-77
2022/04/02 03:26:27;;;;;;;3.13;2.10;;;2.90;99.90;;;;;;4979607;28;20221;-78
2022/04/02 03:28:57;;;;;;;2.20;1.80;;;3.00;99.90;;;;;;4970713;28;20212;-77
2022/04/02 03:31:28;;;;;;;3.93;2.07;;;3.00;99.90;;;;;;4981627;28;20201;-78
2022/04/02 03:33:57;;;;;;;3.00;1.73;;;3.10;99.90;;;;;;4967965;28;20204;-77
2022/04/02 03:36:25;;;;;;;3.67;2.30;;;3.10;99.90;;;;;;4964628;28;20240;-77
2022/04/02 03:38:53;;;;;;;2.67;1.80;;;3.10;99.90;;;;;;4983807;28;20563;-77
2022/04/02 03:41:20;;;;;;;6.07;1.73;;;3.00;99.90;;;;;;4979739;28;20206;-77
2022/04/02 03:43:53;;;;;;;2.63;2.27;;;3.10;99.90;;;;;;4968347;28;20197;-77
2022/04/02 03:49:13;;;;;;;2.97;2.20;;;3.20;99.90;;;;;;4970363;28;20211;-77
2022/04/02 03:51:41;;;;;;;2.37;2.10;;;3.10;99.90;;;;;;4969003;28;20201;-75
2022/04/02 03:54:14;;;;;;;4.03;2.10;;;3.00;99.90;;;;;;4969877;28;20206;-77
2022/04/02 03:56:46;;;;;;;3.17;2.13;;;2.90;99.90;;;;;;4971073;28;20588;-77
2022/04/02 03:59:18;;;;;;;2.83;1.93;;;2.90;99.90;;;;;;4972550;28;20198;-77
2022/04/02 04:01:50;;;;;;;3.70;2.20;;;2.90;99.90;;;;;;4971623;28;20569;-76
2022/04/02 04:04:19;;;;;;;2.33;1.80;;;2.90;99.90;;;;;;4963078;28;20201;-76
2022/04/02 04:06:49;;;;;;;2.37;2.13;;;3.00;99.90;;;;;;4969610;28;20225;-76
2022/04/02 04:09:18;;;;;;;4.37;1.93;;;3.00;99.90;;;;;;4983965;28;20596;-76
2022/04/02 04:11:48;;;;;;;3.43;2.40;;;3.10;99.90;;;;;;4966353;28;20209;-77
2022/04/02 04:14:19;;;;;;;2.23;2.03;;;3.00;99.90;;;;;;4966637;28;20212;-76
2022/04/02 04:16:48;;;;;;;4.50;2.30;;;2.90;99.90;;;;;;4969372;28;20224;-76
2022/04/02 04:19:16;;;;;;;2.77;2.10;;;2.90;99.90;;;;;;4965899;28;20583;-76
2022/04/02 04:21:45;;;;;;;3.00;2.30;;;2.90;99.90;;;;;;4966733;28;20193;-75
2022/04/02 04:24:15;;;;;;;2.93;2.40;;;2.90;99.90;;;;;;4985829;28;20202;-76
2022/04/02 04:26:43;;;;;;;2.33;2.10;;;2.90;99.90;;;;;;4968635;28;20234;-76
2022/04/02 04:29:11;;;;;;;3.03;2.07;;;2.90;99.90;;;;;;4966708;28;20574;-76
2022/04/02 04:31:40;;;;;;;4.60;2.27;;;2.90;99.90;;;;;;4970267;28;20205;-76
2022/04/02 04:34:08;;;;;;;3.33;2.13;;;3.00;99.90;;;;;;4968963;28;20201;-77
2022/04/02 04:36:35;;;;;;;3.37;2.00;;;3.00;99.90;;;;;;4973439;28;20225;-77
2022/04/02 04:39:05;;;;;;;2.20;1.90;;;3.10;99.90;;;;;;4961852;28;20213;-77
2022/04/02 04:41:33;;;;;;;2.63;1.67;;;2.90;99.90;;;;;;4970686;28;20197;-77
2022/04/02 04:44:03;;;;;;;3.23;2.03;;;3.00;99.90;;;;;;4971328;28;20209;-77
2022/04/02 04:46:36;;;;;;;2.67;1.90;;;3.10;99.90;;;;;;4969908;28;20729;-77
2022/04/02 04:49:05;;;;;;;2.27;1.67;;;3.10;99.90;;;;;;4968911;28;20223;-76
2022/04/02 04:51:37;;;;;;;2.73;2.10;;;3.00;99.90;;;;;;4972391;28;20199;-76
2022/04/02 04:54:05;;;;;;;3.10;1.90;;;3.10;99.90;;;;;;4977212;28;20197;-76
2022/04/02 04:56:32;;;;;;;2.50;2.30;;;3.00;99.90;;;;;;4966189;28;20238;-74
2022/04/02 04:59:01;;;;;;;3.23;2.00;;;2.90;99.90;;;;;;4962084;28;20204;-76
2022/04/02 05:01:31;;;;;;;2.70;2.20;;;2.90;99.90;;;;;;4968806;28;20198;-76
2022/04/02 05:03:59;;;;;;;2.30;2.10;;;3.10;99.90;;;;;;4967524;28;20209;-77
2022/04/02 05:06:29;;;;;;;2.10;1.90;;;3.10;99.90;;;;;;4968711;28;20230;-76
2022/04/02 05:08:58;;;;;;;3.20;2.30;;;3.10;99.90;;;;;;4970256;28;20224;-76
2022/04/02 05:11:32;;;;;;;2.83;2.07;;;3.00;99.90;;;;;;4963916;28;20204;-77
2022/04/02 05:14:00;;;;;;;2.67;2.30;;;3.00;99.90;;;;;;4967499;28;20562;-76
2022/04/02 05:16:29;;;;;;;2.97;2.30;;;3.00;99.90;;;;;;4973584;28;20221;-76
2022/04/02 05:18:59;;;;;;;3.77;2.20;;;3.20;99.90;;;;;;4984121;28;20193;-76
2022/04/02 05:21:28;;;;;;;2.70;2.10;;;3.00;99.90;;;;;;4965958;28;20211;-77
2022/04/02 05:23:56;;;;;;;2.90;2.57;;;3.00;99.90;;;;;;4971049;28;20222;-76
2022/04/02 05:26:25;;;;;;;5.17;2.37;;;3.00;99.90;;;;;;4969051;28;20232;-76
2022/04/02 05:28:56;;;;;;;5.47;2.50;;;3.00;99.90;;;;;;4975791;28;20217;-76
2022/04/02 05:31:23;;;;;;;4.10;2.40;;;3.10;99.90;;;;;;4967094;28;20787;-76
2022/04/02 05:33:51;;;;;;;2.50;2.30;;;3.10;99.90;;;;;;4991126;28;20209;-76
2022/04/02 05:36:55;;;;;;;3.80;2.63;;;3.10;99.90;;;;;;4972871;28;20221;-77
2022/04/02 05:39:23;;;;;;;3.50;2.20;;;3.10;99.90;;;;;;4966549;28;20202;-76
2022/04/02 05:41:51;;;;;;;4.27;2.33;;;3.10;99.90;;;;;;4983165;28;20209;-74
2022/04/02 05:44:18;;;;;;;4.97;2.40;;;3.00;99.90;;;;;;4971794;28;20691;-77
2022/04/02 05:46:45;;;;;;;4.47;2.87;;;3.10;99.90;;;;;;4970006;28;20240;-76
2022/04/02 05:49:13;;;;;;;3.77;2.67;;;3.10;99.90;;;;;;4971341;28;20209;-76
2022/04/02 05:51:40;;;;;;;3.60;2.90;;;3.20;99.90;;;;;;4971399;28;20558;-77
2022/04/02 05:54:09;;;;;;;4.00;2.37;;;3.10;99.90;;;;;;4971353;28;20197;-76
2022/04/02 05:56:37;;;;;;;2.93;2.00;;;3.10;99.90;;;;;;4969639;28;20224;-77
2022/04/02 05:59:06;;;;;;;2.17;1.87;;;3.60;99.90;;;;;;4962447;28;20196;-76
2022/04/02 06:01:35;;;;;;;3.17;2.50;;;5.60;99.90;;;;;;4968658;28;20208;-76
2022/04/02 06:04:03;;;;;;;3.33;2.47;;;6.10;98.20;;;;;;4970937;28;20199;-76
2022/04/02 06:06:36;;;;;;;2.60;2.20;;;4.90;95.40;;;;;;4983262;28;20242;-77
2022/04/02 06:09:13;;;;;;;3.03;2.47;;;4.40;97.20;;;;;;4970392;28;20205;-76
2022/04/02 06:11:40;;;;;;;3.47;2.97;;;4.00;97.90;;;;;;4983388;28;20202;-76
2022/04/02 06:14:10;;;;;;;3.97;2.77;;;3.70;98.20;;;;;;4966834;28;20196;-76
2022/04/02 06:16:37;;;;;;;3.43;2.40;;;3.50;98.40;;;;;;4967719;28;20252;-76
2022/04/02 06:19:05;;;;;;;2.93;2.17;;;3.30;98.70;;;;;;4962551;28;20675;-76
2022/04/02 06:21:33;;;;;;;3.57;2.43;;;3.30;98.90;;;;;;4968129;28;20197;-74
2022/04/02 06:24:04;;;;;;;3.33;2.43;;;3.30;98.80;;;;;;4969217;28;20208;-74
2022/04/02 06:26:33;;;;;;;4.07;2.20;;;3.40;99.00;;;;;;4968530;28;20215;-74
2022/04/02 06:29:00;;;;;;;4.00;2.93;;;3.40;99.10;;;;;;4968496;28;20221;-74
2022/04/02 06:31:40;;;;;;;3.53;2.40;;;3.30;99.30;;;;;;4972819;28;20223;-75
2022/04/02 06:34:07;;;;;;;3.50;2.80;;;3.30;99.10;;;;;;4958169;28;20205;-74
2022/04/02 06:36:35;;;;;;;6.23;2.50;;;3.20;99.20;;;;;;4967906;28;20217;-74
2022/04/02 06:39:02;;;;;;;4.60;3.00;;;3.40;99.50;;;;;;4964589;28;20212;-74
2022/04/02 06:41:31;;;;;;;4.07;2.47;;;3.30;99.40;;;;;;4969611;28;20213;-75
2022/04/02 06:43:58;;;;;;;4.47;2.50;;;3.20;99.30;;;;;;4983506;28;20233;-75
2022/04/02 06:46:26;;;;;;;3.43;2.60;;;3.20;99.00;;;;;;4960347;28;20228;-74
2022/04/02 06:48:53;;;;;;;3.50;2.67;;;3.30;99.00;;;;;;4962763;28;20286;-74
2022/04/02 06:51:21;;;;;;;2.67;2.33;;;3.30;98.70;;;;;;4983290;28;20205;-75
2022/04/02 06:53:48;;;;;;;3.40;2.43;;;3.30;98.60;;;;;;4967556;28;20208;-74
2022/04/02 06:56:16;;;;;;;4.03;2.73;;;3.40;99.00;;;;;;4967192;28;20228;-74
2022/04/02 06:58:44;;;;;;;3.23;2.50;;;3.30;99.00;;;;;;4975926;28;20214;-74
2022/04/02 07:01:12;;;;;;;3.80;3.20;;;3.20;98.50;;;;;;4981782;28;20201;-74
2022/04/02 07:03:39;;;;;;;3.80;3.00;;;3.30;99.00;;;;;;4960390;28;20198;-74
2022/04/02 07:06:07;;;;;;;4.20;2.67;;;3.30;99.00;;;;;;4965803;28;20229;-74
2022/04/02 07:08:37;;;;;;;3.47;3.07;;;3.30;99.10;;;;;;4964382;28;20202;-75
2022/04/02 07:11:04;;;;;;;3.33;2.87;;;3.50;99.70;;;;;;4970389;28;20221;-74
2022/04/02 07:13:31;;;;;;;2.80;2.50;;;3.40;99.10;;;;;;4969408;28;20214;-75
2022/04/02 07:16:02;;;;;;;4.83;3.00;;;3.30;99.10;;;;;;4969176;28;20221;-74
2022/04/02 07:18:31;;;;;;;5.77;2.60;;;3.20;99.00;;;;;;4960889;28;20193;-74
2022/04/02 07:21:01;;;;;;;3.13;2.57;;;3.30;99.20;;;;;;4966115;28;20573;-75
2022/04/02 07:23:30;;;;;;;5.20;3.00;;;3.50;99.30;;;;;;4967748;28;20206;-74
2022/04/02 07:25:57;;;;;;;3.57;2.67;;;3.40;99.20;;;;;;4983412;28;20225;-75
2022/04/02 07:28:25;;;;;;;5.03;2.90;;;3.30;99.30;;;;;;4968538;28;20193;-75
2022/04/02 07:30:52;;;;;;;3.93;2.83;;;3.30;98.90;;;;;;4969068;28;20234;-74
2022/04/02 07:33:25;;;;;;;6.30;2.80;;;3.30;99.20;;;;;;4968109;28;20205;-74
2022/04/02 07:35:55;;;;;;;5.40;2.87;;;3.30;99.10;;;;;;4963482;28;20230;-76
2022/04/02 07:38:28;;;;;;;5.47;3.00;;;3.50;99.30;;;;;;4966116;28;20210;-74
2022/04/02 07:41:06;;;;;;;6.43;3.07;;;3.30;99.30;;;;;;4967385;28;20224;-75
2022/04/02 07:43:42;;;;;;;3.50;2.60;;;3.40;99.30;;;;;;4978388;28;20195;-75
2022/04/02 07:46:17;;;;;;;4.73;3.33;;;3.50;98.80;;;;;;4982042;28;20236;-75
2022/04/02 07:48:48;;;;;;;6.13;3.10;;;3.60;99.20;;;;;;4962928;28;20216;-75
2022/04/02 07:51:39;;;;;;;3.17;2.77;;;3.70;99.00;;;;;;4961497;28;20231;-76
2022/04/02 07:54:10;;;;;;;4.80;3.23;;;3.80;98.60;;;;;;4977888;28;20197;-74
2022/04/02 07:56:50;;;;;;;4.47;3.00;;;3.60;98.10;;;;;;4958157;28;20229;-75
2022/04/02 07:59:28;;;;;;;3.37;2.70;;;3.70;98.30;;;;;;4984084;28;20224;-74
2022/04/02 08:01:57;;;;;;;4.27;2.80;;;3.70;98.70;;;;;;4968830;28;20208;-73
2022/04/02 08:04:27;;;;;;;4.03;2.63;;;3.60;98.50;;;;;;4968918;28;20522;-74
2022/04/02 08:06:59;;;;;;;3.70;2.90;;;3.60;98.20;;;;;;4968022;28;20232;-73
2022/04/02 08:09:55;;;;;;;4.03;3.10;;;3.60;98.40;;;;;;4980594;28;20196;-74
2022/04/02 08:12:24;;;;;;;5.87;2.70;;;3.60;98.30;;;;;;4974933;28;20217;-77
2022/04/02 08:14:52;;;;;;;4.57;3.27;;;3.70;98.50;;;;;;4972557;28;20213;-74
2022/04/02 08:17:20;;;;;;;4.57;3.00;;;3.80;98.80;;;;;;4972081;28;20218;-75
2022/04/02 08:19:51;;;;;;;4.63;3.07;;;4.00;98.70;;;;;;4961404;28;20193;-74
2022/04/02 08:22:20;;;;;;;5.40;3.10;;;3.90;98.90;;;;;;4975335;28;20569;-74
2022/04/02 08:24:48;;;;;;;5.00;3.20;;;3.90;98.10;;;;;;4964240;28;20197;-75
2022/04/02 08:27:31;;;;;;;5.33;2.33;;;4.00;98.10;;;;;;4969249;28;20226;-74
2022/04/02 08:30:04;;;;;;;5.43;3.27;;;4.10;98.00;;;;;;4975800;28;20227;-74
2022/04/02 08:32:52;;;;;;;3.47;2.67;;;4.10;97.90;;;;;;4974009;28;20193;-75
2022/04/02 08:35:26;;;;;;;3.60;3.00;;;4.10;97.40;;;;;;4975188;28;20204;-75
2022/04/02 08:38:29;;;;;;;3.10;2.90;;;4.20;97.50;;;;;;4974261;28;20670;-75
2022/04/02 08:41:31;;;;;;;5.53;3.30;;;4.20;97.90;;;;;;4962563;28;20206;-75
2022/04/02 08:44:23;;;;;;;3.33;3.00;;;4.20;97.40;;;;;;4968308;28;20707;-75
2022/04/02 08:47:10;;;;;;;5.20;3.20;;;4.30;97.40;;;;;;4975981;28;20229;-75
2022/04/02 08:49:41;;;;;;;3.20;2.77;;;4.30;97.20;;;;;;4966784;28;20197;-74
2022/04/02 08:52:27;;;;;;;4.90;3.27;;;4.10;96.70;;;;;;4972442;28;20221;-75
2022/04/02 08:55:08;;;;;;;4.73;3.33;;;4.20;97.20;;;;;;4968527;28;20196;-75
2022/04/02 08:58:02;;;;;;;4.50;3.70;;;4.30;97.10;;;;;;4958009;28;20216;-75
2022/04/02 09:00:36;;;;;;;3.80;3.20;;;4.20;96.50;;;;;;4973114;28;20653;-75
2022/04/02 09:03:40;;;;;;;3.80;3.40;;;4.30;96.60;;;;;;4974892;28;20197;-75
2022/04/02 09:06:29;;;;;;;3.90;3.20;;;4.30;96.60;;;;;;4972693;28;20598;-74
2022/04/02 09:09:08;;;;;;;3.87;3.10;;;4.10;96.70;;;;;;4974312;28;20220;-74
2022/04/02 09:12:07;;;;;;;3.80;2.80;;;4.30;96.20;;;;;;4974800;28;20212;-74
2022/04/02 09:14:55;;;;;;;5.37;3.10;;;4.30;95.10;;;;;;4974076;28;20201;-74
2022/04/02 09:17:36;;;;;;;3.50;3.20;;;4.40;95.40;;;;;;4974473;28;20265;-74
2022/04/02 09:20:43;;;;;;;4.67;3.53;;;4.60;96.10;;;;;;4974094;28;20201;-74
2022/04/02 09:23:15;;;;;;;4.37;3.70;;;4.60;95.70;;;;;;4966841;28;20207;-75
2022/04/02 09:26:32;;;;;;;4.17;3.63;;;4.90;95.90;;;;;;4994491;28;20228;-75
2022/04/02 09:29:13;;;;;;;4.33;3.37;;;5.00;95.80;;;;;;4956329;28;20198;-75
2022/04/02 09:32:19;;;;;;;4.50;3.23;;;4.70;94.30;;;;;;4973320;28;20582;-74
2022/04/02 09:35:26;;;;;;;3.83;3.40;;;4.70;94.50;;;;;;4969766;28;20208;-74
2022/04/02 09:38:37;;;;;;;3.50;3.20;;;4.70;93.80;;;;;;4965979;28;20198;-74
2022/04/02 09:41:22;;;;;;;4.07;3.40;;;4.60;93.90;;;;;;4982269;28;20215;-75
2022/04/02 09:43:59;;;;;;;4.07;3.20;;;4.80;94.30;;;;;;4980878;28;20209;-74
2022/04/02 09:46:49;;;;;;;5.57;3.47;;;4.60;93.40;;;;;;4970467;28;20234;-74
2022/04/02 09:49:24;;;;;;;4.63;2.90;;;4.70;92.50;;;;;;4967428;28;20209;-74
2022/04/02 09:51:59;;;;;;;3.70;3.30;;;4.80;92.30;;;;;;4971133;28;20214;-74
2022/04/02 09:54:31;;;;;;;3.43;3.00;;;4.80;92.80;;;;;;4965872;28;20194;-74
2022/04/02 09:57:08;;;;;;;5.40;3.40;;;4.90;93.00;;;;;;4968785;28;20232;-75
2022/04/02 10:00:03;;;;;;;8.50;4.90;;;4.90;92.30;;;;;;4963912;28;20185;-75
2022/04/02 10:03:02;;;;;;;3.90;3.33;;;4.90;92.50;;;;;;4965972;28;20194;-74
2022/04/02 10:05:39;;;;;;;6.10;3.70;;;4.70;93.20;;;;;;4966695;28;20197;-75
2022/04/02 10:08:12;;;;;;;3.63;3.03;;;4.90;93.40;;;;;;4964961;28;20211;-74
2022/04/02 10:10:42;;;;;;;3.57;2.87;;;4.90;93.40;;;;;;4968276;28;20206;-74
2022/04/02 10:13:14;;;;;;;5.63;3.20;;;4.90;93.20;;;;;;4963444;28;20201;-74
2022/04/02 10:15:43;;;;;;;5.57;3.37;;;4.90;93.70;;;;;;4963536;28;20240;-74
2022/04/02 10:18:27;;;;;;;4.00;3.33;;;5.80;99.10;;;;;;4967266;28;20216;-75
2022/04/02 10:20:55;;;;;;;3.90;3.20;;;7.20;97.10;;;;;;4958605;28;20194;-75
2022/04/02 10:23:24;;;;;;;4.03;3.40;;;7.80;93.70;;;;;;4968001;28;20201;-74
2022/04/02 10:26:13;;;;;;;5.10;3.60;;;8.00;92.30;;;;;;4961166;28;20829;-74
2022/04/02 10:28:50;;;;;;;5.03;3.70;;;7.20;90.60;;;;;;4964044;28;20204;-75
2022/04/02 10:31:35;;;;;;;4.00;3.60;;;5.60;91.90;;;;;;4966369;28;20215;-74
2022/04/02 10:34:09;;;;;;;4.40;3.30;;;5.50;92.70;;;;;;4968708;28;20203;-74
2022/04/02 10:36:42;;;;;;;5.30;3.50;;;5.30;93.10;;;;;;4959459;28;20224;-74
2022/04/02 10:39:10;;;;;;;3.70;3.33;;;5.30;93.10;;;;;;4966524;28;20203;-73
2022/04/02 10:41:41;;;;;;;3.40;2.90;;;5.40;93.30;;;;;;4966581;28;20203;-73
2022/04/02 10:44:22;;;;;;;5.37;3.13;;;5.90;93.90;;;;;;4964888;28;20217;-74
2022/04/02 10:46:52;;;;;;;3.80;2.90;;;6.00;92.60;;;;;;4979887;28;20230;-74
2022/04/02 10:49:24;;;;;;;3.77;3.37;;;5.80;92.70;;;;;;4982754;28;20238;-74
2022/04/02 10:52:03;;;;;;;4.80;3.57;;;5.70;93.90;;;;;;4964756;28;20223;-74
2022/04/02 10:54:31;;;;;;;4.20;3.17;;;5.40;94.10;;;;;;4962427;28;20202;-74
2022/04/02 10:56:58;;;;;;;4.90;3.30;;;5.80;94.10;;;;;;4968628;28;20214;-74
2022/04/02 10:59:31;;;;;;;5.03;3.23;;;5.20;94.40;;;;;;4972424;28;20206;-74
2022/04/02 11:02:01;;;;;;;3.90;3.50;;;5.20;95.30;;;;;;4985997;28;20201;-74
2022/04/02 11:04:57;;;;;;;4.77;3.80;;;5.10;96.30;;;;;;4969196;28;20198;-74
2022/04/02 11:07:43;;;;;;;4.23;3.83;;;5.40;97.50;;;;;;4963372;28;20218;-74
2022/04/02 11:10:31;;;;;;;4.57;4.17;;;5.10;99.10;;;;;;4974544;28;20202;-75
2022/04/02 11:13:06;;;;;;;4.43;3.93;;;5.20;99.90;;;;;;4973395;28;20221;-74
2022/04/02 11:15:44;;;;;;;4.77;4.27;;;4.60;99.90;;;;;;4974274;28;20209;-75
2022/04/02 11:18:18;;;;;;;5.03;4.53;;;4.50;99.90;;;;;;4970450;28;20202;-74
2022/04/02 11:20:48;;;;;;;4.70;4.07;;;4.50;99.90;;;;;;4957418;28;20235;-74
2022/04/02 11:23:43;;;;;;;5.90;4.73;;;4.60;99.90;;;;;;4964887;28;20198;-74
2022/04/02 11:26:15;;;;;;;6.53;4.27;;;4.70;99.90;;;;;;4966850;28;20724;-75
2022/04/02 11:28:45;;;;;;;5.93;4.50;;;4.70;99.90;;;;;;4957374;28;20201;-74
2022/04/02 11:31:15;;;;;;;4.50;4.10;;;4.60;99.90;;;;;;4967281;28;20208;-74
2022/04/02 11:33:51;;;;;;;4.37;3.97;;;4.70;99.90;;;;;;4963874;28;20190;-74
2022/04/02 11:36:43;;;;;;;6.47;4.83;;;4.60;99.90;;;;;;4964531;28;20238;-74
2022/04/02 11:39:15;;;;;;;5.17;3.93;;;4.80;99.90;;;;;;4981693;28;20685;-74
2022/04/02 11:41:43;;;;;;;6.30;4.23;;;4.80;99.90;;;;;;4972031;28;20209;-74
2022/04/02 11:44:12;;;;;;;5.13;4.00;;;4.80;99.90;;;;;;4987021;28;20201;-74
2022/04/02 11:46:55;;;;;;;4.10;3.70;;;5.00;99.90;;;;;;4971113;28;20222;-74
2022/04/02 11:49:31;;;;;;;5.10;4.30;;;5.00;99.90;;;;;;4980570;28;20195;-74
2022/04/02 11:52:04;;;;;;;6.30;4.57;;;5.10;99.70;;;;;;4963653;28;20207;-74
2022/04/02 11:54:32;;;;;;;4.60;4.20;;;5.10;99.00;;;;;;4976878;28;20213;-74
2022/04/02 11:57:08;;;;;;;4.60;4.10;;;5.20;98.50;;;;;;4965297;28;20214;-75
2022/04/02 11:59:36;;;;;;;6.17;4.50;;;5.20;98.40;;;;;;4982890;28;20213;-74
2022/04/02 12:02:07;;;;;;;4.87;4.30;;;5.30;98.30;;;;;;4968552;28;20215;-74
2022/04/02 12:04:36;;;;;;;4.77;4.10;;;5.40;98.60;;;;;;4971878;28;20207;-74
2022/04/02 12:07:06;;;;;;;5.50;4.40;;;5.30;98.70;;;;;;4966408;28;20228;-74
2022/04/02 12:09:34;;;;;;;5.00;4.00;;;4.90;98.50;;;;;;4964362;28;20194;-74
2022/04/02 12:12:04;;;;;;;5.83;4.13;;;5.10;98.30;;;;;;4963011;28;20222;-74
2022/04/02 12:14:33;;;;;;;6.23;4.50;;;5.20;97.50;;;;;;4966782;28;20196;-74
2022/04/02 12:17:04;;;;;;;6.10;4.50;;;5.20;97.00;;;;;;4970446;28;20217;-75
2022/04/02 12:19:42;;;;;;;4.77;4.27;;;5.10;96.80;;;;;;4967033;28;20204;-74
2022/04/02 12:22:44;;;;;;;4.93;4.37;;;5.10;96.50;;;;;;4968391;28;20192;-74
2022/04/02 12:25:13;;;;;;;5.00;4.50;;;5.10;96.20;;;;;;4968825;28;20204;-74
2022/04/02 12:27:49;;;;;;;4.87;3.90;;;5.10;96.30;;;;;;4957572;28;20522;-74
2022/04/02 12:30:20;;;;;;;5.43;4.50;;;5.10;96.10;;;;;;4965285;28;20210;-74
2022/04/02 12:32:48;;;;;;;5.17;4.67;;;5.10;96.50;;;;;;4971530;28;20214;-74
2022/04/02 12:35:24;;;;;;;4.10;3.57;;;5.20;96.70;;;;;;4972842;28;20195;-74
2022/04/02 12:37:54;;;;;;;6.10;4.23;;;5.40;96.90;;;;;;4978966;28;20211;-74
2022/04/02 12:40:23;;;;;;;6.07;4.30;;;5.60;96.50;;;;;;4964956;28;20206;-73
2022/04/02 12:42:52;;;;;;;5.70;4.10;;;5.50;95.50;;;;;;4966502;28;20530;-75
2022/04/02 12:45:22;;;;;;;6.40;4.17;;;5.70;95.30;;;;;;4964714;28;20207;-74
2022/04/02 12:48:02;;;;;;;4.87;4.07;;;5.70;94.40;;;;;;4961351;28;20203;-75
2022/04/02 12:50:34;;;;;;;5.77;4.17;;;5.70;94.00;;;;;;4983507;28;20204;-75
2022/04/02 12:53:04;;;;;;;4.33;3.87;;;5.60;94.30;;;;;;4957098;28;20213;-75
2022/04/02 12:55:34;;;;;;;5.27;4.63;;;5.80;94.50;;;;;;4957522;28;20722;-74
2022/04/02 12:58:08;;;;;;;7.70;4.73;;;5.90;94.50;;;;;;4956970;28;20219;-75
2022/04/02 13:00:37;;;;;;;5.60;4.33;;;5.90;94.60;;;;;;4979860;28;20204;-74
2022/04/02 13:03:28;;;;;;;4.80;4.30;;;5.90;94.40;;;;;;4980465;28;20208;-74
2022/04/02 13:06:02;;;;;;;5.60;3.90;;;5.80;93.90;;;;;;4972531;28;20246;-74
2022/04/02 13:08:30;;;;;;;5.40;3.73;;;6.00;94.30;;;;;;4988596;28;20583;-74
2022/04/02 13:11:10;;;;;;;5.30;4.47;;;5.70;94.30;;;;;;4971889;28;20214;-74
2022/04/02 13:14:03;;;;;;;4.50;4.10;;;6.10;94.60;;;;;;4989321;28;20231;-74
2022/04/02 13:16:46;;;;;;;5.17;3.93;;;6.10;94.50;;;;;;4966800;28;20232;-74
2022/04/02 13:22:16;;;;;;;6.07;4.50;;;6.90;92.10;;;;;;4934874;28;20205;-75
2022/04/02 13:24:57;;;;;;;4.50;3.50;;;7.30;90.70;;;;;;4974668;28;20209;-74
2022/04/02 13:27:50;;;;;;;6.40;3.63;;;7.10;90.50;;;;;;4970075;28;20716;-75
2022/04/02 13:30:19;;;;;;;5.60;3.90;;;6.80;89.00;;;;;;4988199;28;20217;-74
2022/04/02 13:33:35;;;;;;;4.53;3.97;;;7.20;87.50;;;;;;4972877;28;20224;-74
2022/04/02 13:36:19;;;;;;;4.27;3.47;;;7.40;86.20;;;;;;4955786;28;20722;-74
2022/04/02 13:38:59;;;;;;;4.03;3.47;;;7.50;84.60;;;;;;4965743;28;20208;-74
2022/04/02 13:41:31;;;;;;;4.83;3.60;;;8.60;83.90;;;;;;4974241;28;20212;-75